Time;durP1;ratioP1;P1;durP2;ratioP2;P2;SDS_P1;SDS_P2;PMS_P1;PMS_P2;Temp;Humidity;BMP_temperature;BMP_pressure;BME280_temperature;BME280_humidity;BME280_pressure;Samples;Min_cycle;Max_cycle;Signal;HPM_P1;HPM_P2
2021/12/30 00:00:56;;;;;;;30.83;17.40;;;10.10;99.90;;;;;;5033165;28;20210;-58
2021/12/30 00:03:24;;;;;;;20.50;15.15;;;10.20;99.90;;;;;;5033362;28;20218;-58
2021/12/30 00:05:53;;;;;;;24.25;16.13;;;10.20;99.90;;;;;;5032776;28;20209;-59
2021/12/30 00:08:21;;;;;;;22.00;13.98;;;10.30;99.90;;;;;;5033270;28;20205;-58
2021/12/30 00:10:50;;;;;;;19.27;16.07;;;10.30;99.90;;;;;;5033057;28;20198;-58
2021/12/30 00:13:17;;;;;;;22.60;16.17;;;10.30;99.90;;;;;;5033023;28;20488;-58
2021/12/30 00:15:44;;;;;;;22.23;15.63;;;10.40;99.90;;;;;;5032933;28;20449;-59
2021/12/30 00:18:12;;;;;;;19.08;14.90;;;10.40;99.90;;;;;;5033085;28;20548;-59
2021/12/30 00:20:40;;;;;;;19.43;15.13;;;10.40;99.90;;;;;;5032700;28;20563;-58
2021/12/30 00:23:09;;;;;;;24.40;15.30;;;10.40;99.90;;;;;;5033161;28;20469;-57
2021/12/30 00:25:40;;;;;;;23.00;16.03;;;10.40;99.90;;;;;;5036788;28;20449;-58
2021/12/30 00:28:11;;;;;;;23.90;14.63;;;10.50;99.90;;;;;;5037196;28;20842;-58
2021/12/30 00:30:39;;;;;;;22.70;15.10;;;10.50;99.90;;;;;;5036875;28;20436;-58
2021/12/30 00:33:06;;;;;;;19.00;14.80;;;10.50;99.90;;;;;;5036546;28;20469;-57
2021/12/30 00:35:33;;;;;;;27.27;16.90;;;10.50;99.90;;;;;;5036889;28;20206;-57
2021/12/30 00:38:00;;;;;;;21.00;15.07;;;10.60;99.90;;;;;;5036968;28;20459;-58
2021/12/30 00:40:28;;;;;;;23.33;15.87;;;10.60;99.90;;;;;;5036954;28;20472;-57
2021/12/30 00:42:55;;;;;;;20.63;15.20;;;10.60;99.90;;;;;;5036391;28;20481;-59
2021/12/30 00:45:24;;;;;;;21.40;15.10;;;10.60;99.90;;;;;;5037053;28;20440;-57
2021/12/30 00:47:51;;;;;;;22.33;16.53;;;10.60;99.90;;;;;;5036504;28;20945;-57
2021/12/30 00:50:18;;;;;;;22.37;14.90;;;10.70;99.90;;;;;;5036604;28;20844;-58
2021/12/30 00:52:46;;;;;;;20.42;15.02;;;10.70;99.90;;;;;;5036529;28;20534;-59
2021/12/30 00:55:13;;;;;;;20.57;14.30;;;10.70;99.90;;;;;;5036510;28;20229;-56
2021/12/30 00:57:41;;;;;;;23.70;15.80;;;10.70;99.90;;;;;;5036443;28;20468;-56
2021/12/30 01:00:12;;;;;;;21.88;15.52;;;10.70;99.90;;;;;;5036507;28;20460;-58
2021/12/30 01:02:40;;;;;;;23.90;15.87;;;10.70;99.90;;;;;;5036372;28;20633;-59
2021/12/30 01:05:08;;;;;;;21.70;15.03;;;10.70;99.90;;;;;;5036445;28;20449;-58
2021/12/30 01:07:36;;;;;;;23.23;14.80;;;10.70;99.90;;;;;;5036043;28;20445;-59
2021/12/30 01:10:04;;;;;;;29.47;15.40;;;10.70;99.90;;;;;;5036387;28;20449;-57
2021/12/30 01:12:31;;;;;;;23.00;14.75;;;10.70;99.90;;;;;;5036386;28;20467;-59
2021/12/30 01:14:58;;;;;;;24.47;15.07;;;10.70;99.90;;;;;;5036181;28;20561;-59
2021/12/30 01:17:41;;;;;;;22.43;15.20;;;10.70;99.90;;;;;;5036216;28;20449;-58
2021/12/30 01:20:11;;;;;;;21.10;14.50;;;10.70;99.90;;;;;;5036167;28;20440;-58
2021/12/30 01:22:38;;;;;;;22.77;13.53;;;10.70;99.90;;;;;;5036030;28;20472;-57
2021/12/30 01:25:08;;;;;;;23.50;14.67;;;10.80;99.90;;;;;;5035790;28;20437;-58
2021/12/30 01:27:36;;;;;;;22.03;14.27;;;10.80;99.90;;;;;;5036186;28;20822;-57
2021/12/30 01:30:05;;;;;;;20.43;14.70;;;10.80;99.90;;;;;;5036125;28;20445;-60
2021/12/30 01:32:32;;;;;;;20.87;14.10;;;10.80;99.90;;;;;;5036420;28;20468;-58
2021/12/30 01:35:00;;;;;;;20.43;14.20;;;10.80;99.90;;;;;;5035668;28;20476;-59
2021/12/30 01:37:28;;;;;;;23.23;15.33;;;10.80;99.90;;;;;;5035360;28;20449;-58
2021/12/30 01:39:55;;;;;;;19.47;14.90;;;10.70;99.90;;;;;;5035694;28;20460;-58
2021/12/30 01:42:23;;;;;;;21.67;14.30;;;10.70;99.90;;;;;;5035391;28;20473;-58
2021/12/30 01:44:50;;;;;;;25.47;14.20;;;10.70;99.90;;;;;;5036313;28;20539;-57
2021/12/30 01:47:17;;;;;;;21.37;15.30;;;10.70;99.90;;;;;;5035685;28;20452;-58
2021/12/30 01:49:46;;;;;;;25.10;13.80;;;10.70;99.90;;;;;;5035731;28;20449;-57
2021/12/30 01:52:13;;;;;;;18.43;13.40;;;10.80;99.90;;;;;;5035282;28;20539;-57
2021/12/30 01:54:41;;;;;;;26.83;13.60;;;10.80;99.90;;;;;;5035308;28;20476;-57
2021/12/30 01:57:08;;;;;;;22.60;13.60;;;10.80;99.90;;;;;;5035427;28;20445;-58
2021/12/30 01:59:36;;;;;;;20.37;12.57;;;10.80;99.90;;;;;;5035530;28;20456;-58
2021/12/30 02:02:04;;;;;;;17.63;11.90;;;10.90;99.90;;;;;;5035108;28;20469;-58
2021/12/30 02:04:33;;;;;;;20.60;13.30;;;10.90;99.90;;;;;;5035377;28;20449;-58
2021/12/30 02:07:00;;;;;;;22.60;13.43;;;10.90;99.90;;;;;;5036564;28;20904;-57
2021/12/30 02:09:29;;;;;;;19.90;12.90;;;10.90;99.90;;;;;;5036182;28;20449;-58
2021/12/30 02:12:00;;;;;;;22.43;13.20;;;10.90;99.90;;;;;;5035517;28;20479;-57
2021/12/30 02:14:27;;;;;;;18.37;12.23;;;10.90;99.90;;;;;;5035872;28;20472;-59
2021/12/30 02:16:54;;;;;;;28.90;12.63;;;10.90;99.90;;;;;;5037166;28;20515;-58
2021/12/30 02:19:21;;;;;;;19.27;12.77;;;10.90;99.90;;;;;;5035312;28;20810;-58
2021/12/30 02:21:50;;;;;;;22.00;12.97;;;10.90;99.90;;;;;;5035097;28;20460;-59
2021/12/30 02:24:17;;;;;;;16.57;12.60;;;10.80;99.90;;;;;;5034693;28;20445;-60
2021/12/30 02:26:44;;;;;;;27.40;14.30;;;10.80;99.90;;;;;;5034633;28;20459;-59
2021/12/30 02:29:11;;;;;;;26.80;13.10;;;10.80;99.90;;;;;;5034748;28;20955;-58
2021/12/30 02:31:40;;;;;;;20.40;12.40;;;10.80;99.90;;;;;;5035011;28;20449;-58
2021/12/30 02:34:07;;;;;;;22.40;12.70;;;10.80;99.90;;;;;;5034728;28;20905;-57
2021/12/30 02:36:36;;;;;;;21.80;11.80;;;10.80;99.90;;;;;;5034509;28;20909;-58
2021/12/30 02:39:07;;;;;;;22.73;13.27;;;10.80;99.90;;;;;;5034443;28;20892;-59
2021/12/30 02:41:35;;;;;;;26.23;13.00;;;10.70;99.90;;;;;;5034600;28;20433;-58
2021/12/30 02:44:05;;;;;;;17.20;11.40;;;10.70;99.90;;;;;;5034149;28;20481;-59
2021/12/30 02:46:33;;;;;;;29.67;13.10;;;10.70;99.90;;;;;;5034668;28;20452;-59
2021/12/30 02:49:01;;;;;;;22.00;12.70;;;10.70;99.90;;;;;;5033226;28;20449;-57
2021/12/30 02:51:28;;;;;;;25.97;12.70;;;10.70;99.90;;;;;;5034505;28;20501;-60
2021/12/30 02:53:56;;;;;;;22.07;12.10;;;10.80;99.90;;;;;;5034011;28;20472;-60
2021/12/30 02:56:25;;;;;;;21.13;12.80;;;10.80;99.90;;;;;;5034104;28;20448;-59
2021/12/30 02:58:52;;;;;;;28.97;12.23;;;10.90;99.90;;;;;;5034021;28;20441;-59
2021/12/30 03:01:22;;;;;;;17.70;9.43;;;10.90;99.90;;;;;;5034368;28;20438;-56
2021/12/30 03:03:50;;;;;;;25.27;10.20;;;10.90;99.90;;;;;;5034297;28;20476;-59
2021/12/30 03:06:18;;;;;;;21.93;10.00;;;10.90;99.90;;;;;;5034193;28;20810;-57
2021/12/30 03:08:47;;;;;;;23.13;9.10;;;10.90;99.90;;;;;;5034127;28;20455;-58
2021/12/30 03:11:15;;;;;;;21.17;9.07;;;10.90;99.90;;;;;;5033820;28;20441;-59
2021/12/30 03:13:44;;;;;;;18.90;8.90;;;10.90;99.90;;;;;;5033987;28;20465;-58
2021/12/30 03:16:15;;;;;;;20.90;9.20;;;11.00;99.90;;;;;;5033612;28;21019;-58
2021/12/30 03:18:44;;;;;;;18.00;9.10;;;10.90;99.90;;;;;;5035346;28;20441;-60
2021/12/30 03:21:14;;;;;;;15.90;7.63;;;10.90;99.90;;;;;;5034052;28;20524;-59
2021/12/30 03:23:41;;;;;;;20.90;8.67;;;10.80;99.90;;;;;;5033817;28;20838;-58
2021/12/30 03:26:09;;;;;;;16.13;8.20;;;10.80;99.90;;;;;;5033814;28;20456;-59
2021/12/30 03:28:39;;;;;;;18.53;9.03;;;10.70;99.90;;;;;;5033542;28;20441;-57
2021/12/30 03:31:07;;;;;;;32.05;8.23;;;10.70;99.90;;;;;;5033850;28;20528;-55
2021/12/30 03:33:34;;;;;;;15.57;6.97;;;10.60;99.90;;;;;;5033656;28;20226;-58
2021/12/30 03:36:04;;;;;;;18.20;7.40;;;10.60;99.90;;;;;;5033365;28;20477;-58
2021/12/30 03:38:33;;;;;;;18.17;7.72;;;10.60;99.90;;;;;;5033640;28;20455;-59
2021/12/30 03:41:01;;;;;;;21.13;8.07;;;10.50;99.90;;;;;;5033328;28;20202;-59
2021/12/30 03:43:29;;;;;;;18.40;8.40;;;10.50;99.90;;;;;;5033252;28;20477;-59
2021/12/30 03:45:56;;;;;;;20.90;8.27;;;10.50;99.90;;;;;;5033607;28;20457;-57
2021/12/30 03:48:32;;;;;;;21.53;8.03;;;10.50;99.90;;;;;;5033975;28;20452;-57
2021/12/30 03:51:04;;;;;;;17.73;6.83;;;10.50;99.90;;;;;;5033255;28;20437;-58
2021/12/30 03:53:31;;;;;;;21.23;7.97;;;10.60;99.90;;;;;;5033206;28;20508;-60
2021/12/30 03:55:58;;;;;;;23.47;8.33;;;10.60;99.90;;;;;;5033324;28;20225;-59
2021/12/30 03:58:25;;;;;;;20.90;7.35;;;10.60;99.90;;;;;;5033034;28;20949;-60
2021/12/30 04:00:52;;;;;;;23.30;7.20;;;10.70;99.90;;;;;;5033635;28;20209;-59
2021/12/30 04:03:19;;;;;;;21.63;7.60;;;10.70;99.90;;;;;;5033528;28;20465;-58
2021/12/30 04:09:11;;;;;;;20.83;7.10;;;10.80;99.90;;;;;;5153712;27;20266;-60
2021/12/30 04:11:38;;;;;;;23.80;7.03;;;10.80;99.90;;;;;;5153366;27;20447;-60
2021/12/30 04:14:06;;;;;;;21.00;8.70;;;10.80;99.90;;;;;;5132831;27;20472;-59
2021/12/30 04:16:34;;;;;;;19.50;6.47;;;10.80;99.90;;;;;;5132563;28;20449;-60
2021/12/30 04:19:01;;;;;;;27.87;7.60;;;10.80;99.90;;;;;;5134676;28;20447;-58
2021/12/30 04:21:28;;;;;;;19.73;8.37;;;10.90;99.90;;;;;;5146285;22;20494;-62
2021/12/30 04:23:55;;;;;;;20.70;6.97;;;10.90;99.90;;;;;;5090687;28;20454;-62
2021/12/30 04:26:24;;;;;;;26.40;6.93;;;10.90;99.90;;;;;;5090261;28;20450;-60
2021/12/30 04:28:51;;;;;;;25.73;7.40;;;10.90;99.90;;;;;;5090600;28;20474;-61
2021/12/30 04:31:18;;;;;;;22.07;6.63;;;10.90;99.90;;;;;;5090405;28;20462;-62
2021/12/30 04:33:45;;;;;;;19.70;6.83;;;10.90;99.90;;;;;;5089984;28;20447;-62
2021/12/30 04:36:14;;;;;;;21.40;6.70;;;10.80;99.90;;;;;;5090142;28;20813;-62
2021/12/30 04:38:41;;;;;;;19.67;7.47;;;10.80;99.90;;;;;;5090056;28;20995;-62
2021/12/30 04:41:08;;;;;;;20.90;7.13;;;10.70;99.90;;;;;;5090244;28;20470;-62
2021/12/30 04:43:37;;;;;;;20.17;6.60;;;10.70;99.90;;;;;;5090644;28;20933;-62
2021/12/30 04:46:04;;;;;;;17.03;7.27;;;10.60;99.90;;;;;;5090138;28;20447;-61
2021/12/30 04:48:31;;;;;;;21.17;7.37;;;10.60;99.90;;;;;;5089945;28;20482;-62
2021/12/30 04:50:58;;;;;;;24.30;8.30;;;10.60;99.90;;;;;;5089885;28;20467;-62
2021/12/30 04:53:25;;;;;;;19.23;7.10;;;10.50;99.90;;;;;;5089503;28;20453;-62
2021/12/30 04:55:52;;;;;;;28.73;7.77;;;10.50;99.90;;;;;;5089538;28;20196;-62
2021/12/30 04:58:19;;;;;;;23.20;7.47;;;10.50;99.90;;;;;;5089983;28;20451;-62
2021/12/30 05:00:48;;;;;;;23.13;7.53;;;10.50;99.90;;;;;;5089578;28;20468;-62
2021/12/30 05:03:16;;;;;;;20.43;6.97;;;10.40;99.90;;;;;;5089736;28;20443;-62
2021/12/30 05:05:45;;;;;;;19.93;7.53;;;10.30;99.90;;;;;;5089659;28;20446;-62
2021/12/30 05:08:13;;;;;;;20.10;7.47;;;10.30;99.90;;;;;;5089206;28;20532;-60
2021/12/30 05:10:40;;;;;;;22.03;7.73;;;10.30;99.90;;;;;;5089694;28;20443;-61
2021/12/30 05:13:09;;;;;;;24.05;7.78;;;10.20;99.90;;;;;;5089628;28;20438;-62
2021/12/30 05:15:36;;;;;;;25.30;7.53;;;10.20;99.90;;;;;;5089248;28;20209;-62
2021/12/30 05:18:05;;;;;;;20.97;7.00;;;10.20;99.90;;;;;;5089429;28;20236;-62
2021/12/30 05:20:33;;;;;;;25.70;8.17;;;10.20;99.90;;;;;;5075013;28;20969;-62
2021/12/30 05:23:00;;;;;;;16.37;5.93;;;10.20;99.90;;;;;;5075375;28;20871;-60
2021/12/30 05:25:28;;;;;;;23.88;7.65;;;10.20;99.90;;;;;;5075831;28;20446;-62
2021/12/30 05:27:55;;;;;;;20.17;7.00;;;10.20;99.90;;;;;;5075327;28;20220;-61
2021/12/30 05:30:23;;;;;;;24.40;7.50;;;10.20;99.90;;;;;;5075786;28;20443;-62
2021/12/30 05:32:51;;;;;;;15.90;7.60;;;10.30;99.90;;;;;;5076216;28;20478;-63
2021/12/30 05:35:21;;;;;;;23.70;9.17;;;10.30;99.90;;;;;;5075654;28;20450;-62
2021/12/30 05:37:49;;;;;;;15.52;7.03;;;10.30;99.90;;;;;;5075600;28;20466;-62
2021/12/30 05:40:18;;;;;;;17.87;8.20;;;10.30;99.90;;;;;;5075320;28;20201;-61
2021/12/30 05:42:46;;;;;;;23.57;8.73;;;10.30;99.90;;;;;;5075160;28;20475;-62
2021/12/30 05:45:15;;;;;;;22.10;8.88;;;10.30;99.90;;;;;;5075463;28;20446;-61
2021/12/30 05:47:46;;;;;;;17.10;8.50;;;10.30;99.90;;;;;;5075126;28;20217;-62
2021/12/30 05:50:16;;;;;;;22.30;9.77;;;10.20;99.90;;;;;;5075254;28;20463;-62
2021/12/30 05:52:44;;;;;;;21.83;9.80;;;10.20;99.90;;;;;;5075255;28;20506;-62
2021/12/30 05:55:13;;;;;;;21.00;8.37;;;10.20;99.90;;;;;;5075142;28;20931;-62
2021/12/30 05:57:40;;;;;;;21.03;8.87;;;10.30;99.90;;;;;;5075141;28;20611;-61
2021/12/30 06:00:10;;;;;;;27.17;10.03;;;10.30;99.90;;;;;;5075274;28;20473;-61
2021/12/30 06:02:37;;;;;;;24.67;9.30;;;10.40;99.90;;;;;;5075255;28;20474;-61
2021/12/30 06:05:06;;;;;;;18.20;8.67;;;10.40;99.90;;;;;;5075251;28;20451;-61
2021/12/30 06:07:33;;;;;;;21.00;8.83;;;10.50;99.90;;;;;;5074643;28;20602;-61
2021/12/30 06:10:01;;;;;;;20.60;9.80;;;10.50;99.90;;;;;;5075137;28;20448;-61
2021/12/30 06:12:29;;;;;;;24.93;9.13;;;10.50;99.90;;;;;;5074903;28;20463;-61
2021/12/30 06:14:57;;;;;;;24.97;9.60;;;10.50;99.90;;;;;;5074822;28;20443;-60
2021/12/30 06:17:24;;;;;;;29.07;11.80;;;10.60;99.90;;;;;;5074648;28;20930;-61
2021/12/30 06:19:51;;;;;;;25.33;10.50;;;10.60;99.90;;;;;;5074586;28;20454;-61
2021/12/30 06:22:18;;;;;;;26.83;10.32;;;10.60;99.90;;;;;;5074463;28;20482;-62
2021/12/30 06:24:45;;;;;;;30.70;11.00;;;10.60;99.90;;;;;;5074875;28;20213;-62
2021/12/30 06:27:14;;;;;;;31.33;12.20;;;10.60;99.90;;;;;;5074816;28;20446;-61
2021/12/30 06:29:42;;;;;;;21.45;10.73;;;10.60;99.90;;;;;;5074869;28;20478;-60
2021/12/30 06:32:09;;;;;;;26.93;11.77;;;10.60;99.90;;;;;;5081826;28;20289;-61
2021/12/30 06:34:36;;;;;;;19.97;11.00;;;10.70;99.90;;;;;;5085966;28;20447;-60
2021/12/30 06:37:04;;;;;;;28.23;12.20;;;10.80;99.90;;;;;;5084272;28;20490;-60
2021/12/30 06:39:31;;;;;;;24.10;11.43;;;10.80;99.90;;;;;;5082675;28;20436;-61
2021/12/30 06:41:58;;;;;;;18.00;11.00;;;10.90;99.90;;;;;;5078398;28;20470;-60
2021/12/30 06:44:26;;;;;;;21.43;11.73;;;10.90;99.90;;;;;;5076451;28;20447;-60
2021/12/30 06:46:57;;;;;;;20.87;10.97;;;11.00;99.90;;;;;;5077686;28;20500;-61
2021/12/30 06:49:24;;;;;;;29.83;13.03;;;11.00;99.90;;;;;;5078140;28;20517;-60
2021/12/30 06:51:52;;;;;;;28.33;12.83;;;11.10;99.90;;;;;;5077636;28;20470;-60
2021/12/30 06:54:19;;;;;;;21.00;12.70;;;11.10;99.90;;;;;;5074807;28;20447;-61
2021/12/30 06:56:47;;;;;;;24.53;11.93;;;11.10;99.90;;;;;;5074168;28;20443;-61
2021/12/30 06:59:15;;;;;;;24.83;12.20;;;11.10;99.90;;;;;;5074222;28;20489;-61
2021/12/30 07:01:44;;;;;;;23.40;11.87;;;11.20;99.90;;;;;;5074060;28;20471;-62
2021/12/30 07:04:11;;;;;;;22.30;11.73;;;11.20;99.90;;;;;;5073816;28;20444;-61
2021/12/30 07:06:38;;;;;;;26.27;13.07;;;11.20;99.90;;;;;;5073458;28;20443;-63
2021/12/30 07:09:06;;;;;;;24.67;13.03;;;11.20;99.90;;;;;;5073666;28;20478;-61
2021/12/30 07:11:33;;;;;;;24.97;13.53;;;11.30;99.90;;;;;;5073818;28;20472;-62
2021/12/30 07:14:00;;;;;;;23.83;13.70;;;11.30;99.90;;;;;;5073554;28;20821;-62
2021/12/30 07:16:27;;;;;;;25.77;14.00;;;11.30;99.90;;;;;;5073918;28;20444;-62
2021/12/30 07:18:56;;;;;;;25.40;13.77;;;11.30;99.90;;;;;;5073798;28;20451;-62
2021/12/30 07:21:23;;;;;;;29.53;14.80;;;11.30;99.90;;;;;;5073112;28;20498;-62
2021/12/30 07:23:50;;;;;;;20.80;13.67;;;11.30;99.90;;;;;;5073419;28;20435;-61
2021/12/30 07:26:17;;;;;;;23.10;13.07;;;11.30;99.90;;;;;;5074642;28;20773;-61
2021/12/30 07:28:45;;;;;;;21.40;13.17;;;11.30;99.90;;;;;;5073251;28;20483;-62
2021/12/30 07:31:12;;;;;;;21.90;12.60;;;11.30;99.90;;;;;;5073128;28;20499;-62
2021/12/30 07:33:39;;;;;;;32.70;13.63;;;11.30;99.90;;;;;;5073508;28;20443;-61
2021/12/30 07:36:08;;;;;;;25.63;13.40;;;11.40;99.90;;;;;;5073528;28;20447;-62
2021/12/30 07:38:35;;;;;;;20.80;13.50;;;11.40;99.90;;;;;;5073063;28;20926;-62
2021/12/30 07:41:04;;;;;;;24.40;13.30;;;11.40;99.90;;;;;;5073040;28;20463;-62
2021/12/30 07:43:31;;;;;;;22.40;13.17;;;11.40;99.90;;;;;;5073909;28;20447;-62
2021/12/30 07:45:59;;;;;;;21.60;13.07;;;11.40;99.90;;;;;;5073630;28;20447;-62
2021/12/30 07:48:26;;;;;;;23.20;14.67;;;11.50;99.90;;;;;;5073292;28;20562;-62
2021/12/30 07:50:53;;;;;;;22.23;13.57;;;11.50;99.90;;;;;;5073239;28;20443;-62
2021/12/30 07:53:22;;;;;;;28.70;14.30;;;11.50;99.90;;;;;;5072712;28;20985;-62
2021/12/30 07:55:49;;;;;;;32.10;15.47;;;11.60;99.90;;;;;;5073011;28;20810;-62
2021/12/30 07:58:17;;;;;;;21.10;15.13;;;11.60;99.90;;;;;;5072701;28;20447;-62
2021/12/30 08:00:44;;;;;;;18.47;15.10;;;11.60;99.90;;;;;;5073057;28;20447;-63
2021/12/30 08:03:11;;;;;;;19.37;15.20;;;11.60;99.90;;;;;;5072791;28;20481;-62
2021/12/30 08:05:38;;;;;;;22.33;14.90;;;11.70;99.90;;;;;;5073072;28;20458;-62
2021/12/30 08:08:05;;;;;;;24.43;14.60;;;11.70;99.90;;;;;;5073157;28;20453;-61
2021/12/30 08:10:35;;;;;;;18.27;13.70;;;11.70;99.90;;;;;;5073193;28;20439;-61
2021/12/30 08:13:02;;;;;;;24.07;14.87;;;11.70;99.90;;;;;;5072884;28;20474;-62
2021/12/30 08:15:29;;;;;;;23.90;14.83;;;11.70;99.90;;;;;;5073890;28;20473;-61
2021/12/30 08:17:57;;;;;;;21.17;14.97;;;11.80;99.90;;;;;;5073088;28;20466;-62
2021/12/30 08:20:27;;;;;;;17.87;14.40;;;11.80;99.90;;;;;;5072971;28;20549;-62
2021/12/30 08:22:54;;;;;;;23.23;15.10;;;11.80;99.90;;;;;;5072530;28;20493;-62
2021/12/30 08:25:22;;;;;;;18.30;13.90;;;11.90;99.90;;;;;;5072744;28;20454;-62
2021/12/30 08:27:51;;;;;;;19.17;13.10;;;11.90;99.90;;;;;;5072855;28;20443;-62
2021/12/30 08:30:20;;;;;;;19.83;13.53;;;11.90;99.90;;;;;;5072219;28;20521;-62
2021/12/30 08:32:48;;;;;;;22.53;14.40;;;12.00;99.90;;;;;;5072836;28;20474;-62
2021/12/30 08:35:16;;;;;;;18.83;13.67;;;12.00;99.90;;;;;;5072460;28;20439;-63
2021/12/30 08:37:44;;;;;;;19.00;12.73;;;12.00;99.90;;;;;;5072836;28;20796;-61
2021/12/30 08:40:13;;;;;;;16.57;12.07;;;12.00;99.90;;;;;;5072434;28;20431;-62
2021/12/30 08:42:40;;;;;;;16.20;11.07;;;12.10;99.90;;;;;;5072571;28;20967;-61
2021/12/30 08:45:10;;;;;;;16.77;11.80;;;12.10;99.90;;;;;;5072652;28;20940;-61
2021/12/30 08:47:37;;;;;;;14.03;9.87;;;12.20;99.90;;;;;;5073032;28;20443;-62
2021/12/30 08:50:06;;;;;;;14.60;9.40;;;12.20;99.90;;;;;;5072879;28;20479;-62
2021/12/30 08:52:33;;;;;;;12.40;10.40;;;12.30;99.90;;;;;;5072212;28;20469;-61
2021/12/30 08:55:04;;;;;;;12.30;9.03;;;12.30;99.90;;;;;;5074869;28;20553;-62
2021/12/30 08:57:31;;;;;;;13.67;9.20;;;12.30;99.90;;;;;;5076012;28;20431;-62
2021/12/30 08:59:58;;;;;;;11.17;9.27;;;12.40;99.90;;;;;;5076077;28;20449;-61
2021/12/30 09:02:27;;;;;;;10.13;8.40;;;12.40;99.90;;;;;;5076488;28;20467;-61
2021/12/30 09:04:54;;;;;;;13.60;9.97;;;12.50;99.90;;;;;;5076357;28;20459;-61
2021/12/30 09:07:22;;;;;;;10.30;8.87;;;12.50;99.90;;;;;;5076236;28;20446;-61
2021/12/30 09:09:50;;;;;;;11.40;7.97;;;12.60;99.90;;;;;;5076341;28;20586;-62
2021/12/30 09:12:17;;;;;;;9.67;7.70;;;12.60;99.90;;;;;;5076209;28;20474;-61
2021/12/30 09:14:45;;;;;;;9.30;7.40;;;12.60;99.90;;;;;;5075805;28;20516;-62
2021/12/30 09:17:12;;;;;;;9.53;7.40;;;12.70;99.90;;;;;;5076048;28;20808;-61
2021/12/30 09:19:40;;;;;;;9.80;7.20;;;12.70;99.90;;;;;;5075964;28;20808;-61
2021/12/30 09:22:07;;;;;;;8.37;7.17;;;12.70;99.90;;;;;;5076139;28;20839;-62
2021/12/30 09:24:35;;;;;;;8.00;7.20;;;12.70;99.90;;;;;;5075730;28;20935;-62
2021/12/30 09:27:03;;;;;;;10.37;7.57;;;12.70;99.90;;;;;;5075583;28;20443;-62
2021/12/30 09:29:30;;;;;;;9.50;8.33;;;12.70;99.90;;;;;;5075544;28;20589;-61
2021/12/30 09:31:58;;;;;;;8.23;7.13;;;12.70;99.90;;;;;;5075556;28;20470;-61
2021/12/30 09:34:25;;;;;;;14.73;7.90;;;12.60;99.90;;;;;;5075724;28;20791;-61
2021/12/30 09:36:53;;;;;;;7.93;7.13;;;12.50;99.90;;;;;;5075548;28;20450;-62
2021/12/30 09:39:21;;;;;;;9.47;7.00;;;12.50;99.90;;;;;;5075717;28;20455;-61
2021/12/30 09:41:48;;;;;;;8.90;7.00;;;12.50;99.90;;;;;;5075438;28;20830;-62
2021/12/30 09:44:16;;;;;;;12.43;7.43;;;12.50;99.90;;;;;;5076244;28;20450;-61
2021/12/30 09:46:44;;;;;;;9.87;7.60;;;12.50;99.90;;;;;;5075299;28;20518;-61
2021/12/30 09:49:14;;;;;;;9.98;8.27;;;12.50;99.90;;;;;;5074394;28;20553;-62
2021/12/30 09:51:42;;;;;;;8.93;7.47;;;12.50;99.90;;;;;;5075004;28;20594;-60
2021/12/30 09:54:11;;;;;;;8.60;7.10;;;12.50;99.90;;;;;;5078714;28;20451;-62
2021/12/30 09:56:38;;;;;;;6.83;6.10;;;12.60;99.90;;;;;;5083721;28;20435;-64
2021/12/30 09:59:07;;;;;;;6.60;5.90;;;12.60;99.90;;;;;;5079161;28;20449;-66
2021/12/30 10:01:36;;;;;;;5.97;5.37;;;12.60;99.90;;;;;;5077616;28;21063;-64
2021/12/30 10:04:05;;;;;;;6.30;5.23;;;12.60;99.90;;;;;;5077917;28;20841;-62
2021/12/30 10:06:34;;;;;;;6.03;5.37;;;12.70;99.90;;;;;;5075422;28;20443;-62
2021/12/30 10:09:09;;;;;;;5.10;4.60;;;12.70;99.90;;;;;;5075186;28;20471;-62
2021/12/30 10:11:46;;;;;;;6.17;4.77;;;12.70;99.90;;;;;;5074638;28;20974;-61
2021/12/30 10:14:25;;;;;;;6.47;5.20;;;12.70;99.90;;;;;;5075134;28;20431;-61
2021/12/30 10:16:52;;;;;;;5.00;4.40;;;12.70;99.90;;;;;;5074942;28;20458;-62
2021/12/30 10:19:27;;;;;;;4.70;4.20;;;12.70;99.90;;;;;;5074873;28;20447;-63
2021/12/30 10:21:54;;;;;;;6.97;4.90;;;12.70;99.90;;;;;;5099899;22;20855;-60
2021/12/30 10:24:21;;;;;;;5.30;4.80;;;12.70;99.90;;;;;;5094969;28;20459;-56
2021/12/30 10:26:51;;;;;;;5.97;4.40;;;12.70;99.90;;;;;;5095017;28;20450;-58
2021/12/30 10:29:19;;;;;;;4.37;3.93;;;12.80;99.90;;;;;;5095082;28;20485;-59
2021/12/30 10:31:47;;;;;;;7.83;4.80;;;12.80;99.90;;;;;;5095077;28;20447;-59
2021/12/30 10:34:16;;;;;;;3.97;3.57;;;12.90;99.90;;;;;;5094961;28;20442;-59
2021/12/30 10:36:46;;;;;;;5.83;3.60;;;12.90;99.90;;;;;;5094932;28;20450;-59
2021/12/30 10:39:18;;;;;;;3.90;3.50;;;12.90;99.90;;;;;;5094871;28;20851;-59
2021/12/30 10:41:46;;;;;;;4.70;3.87;;;13.00;99.90;;;;;;5094517;28;20453;-57
2021/12/30 10:44:14;;;;;;;3.17;2.90;;;13.00;99.90;;;;;;5094920;28;20473;-59
2021/12/30 10:46:42;;;;;;;4.43;3.50;;;13.00;99.90;;;;;;5094901;28;20443;-59
2021/12/30 10:49:11;;;;;;;2.93;2.70;;;13.00;99.90;;;;;;5094846;28;20481;-59
2021/12/30 10:51:41;;;;;;;3.77;2.97;;;13.00;99.90;;;;;;5094623;28;20450;-59
2021/12/30 10:54:20;;;;;;;3.80;2.83;;;13.00;99.90;;;;;;5094535;28;20454;-58
2021/12/30 10:56:48;;;;;;;3.93;2.33;;;12.90;99.90;;;;;;5094517;28;20442;-56
2021/12/30 10:59:27;;;;;;;2.40;2.20;;;12.90;99.90;;;;;;5094318;28;20445;-58
2021/12/30 11:01:57;;;;;;;2.40;2.20;;;12.90;99.90;;;;;;5094272;28;20437;-58
2021/12/30 11:04:33;;;;;;;1.53;1.43;;;12.90;99.90;;;;;;5094218;28;20427;-57
2021/12/30 11:07:01;;;;;;;1.90;1.80;;;12.90;99.90;;;;;;5094243;28;20430;-57
2021/12/30 11:09:28;;;;;;;3.53;1.57;;;13.00;99.90;;;;;;5093808;28;20998;-58
2021/12/30 11:11:58;;;;;;;2.13;1.83;;;13.00;99.90;;;;;;5093690;28;20975;-58
2021/12/30 11:14:29;;;;;;;2.03;1.90;;;13.00;99.90;;;;;;5093568;28;21007;-56
2021/12/30 11:17:02;;;;;;;4.40;2.20;;;13.10;99.90;;;;;;5093094;28;20457;-59
2021/12/30 11:19:31;;;;;;;2.87;2.13;;;13.10;99.90;;;;;;5094178;28;20423;-58
2021/12/30 11:21:59;;;;;;;2.50;2.30;;;13.10;99.90;;;;;;5093987;28;20445;-58
2021/12/30 11:24:30;;;;;;;2.97;2.67;;;13.10;99.90;;;;;;5094240;28;20437;-58
2021/12/30 11:26:57;;;;;;;2.20;2.03;;;13.20;99.90;;;;;;5094022;28;20431;-58
2021/12/30 11:29:26;;;;;;;2.30;2.10;;;13.20;99.90;;;;;;5094677;28;20477;-58
2021/12/30 11:31:53;;;;;;;2.87;2.67;;;13.20;99.90;;;;;;5094080;28;20445;-57
2021/12/30 11:34:23;;;;;;;3.53;2.60;;;13.30;99.90;;;;;;5094570;28;20454;-57
2021/12/30 11:36:50;;;;;;;3.93;2.97;;;13.30;99.90;;;;;;5093253;28;20511;-58
2021/12/30 11:39:20;;;;;;;3.27;3.07;;;13.30;99.90;;;;;;5093740;28;20450;-57
2021/12/30 11:41:55;;;;;;;3.10;2.80;;;13.30;99.90;;;;;;5093699;28;20426;-58
2021/12/30 11:44:39;;;;;;;4.03;2.80;;;13.40;99.90;;;;;;5093578;28;20802;-59
2021/12/30 11:47:08;;;;;;;3.57;2.93;;;13.40;99.90;;;;;;5093365;28;20442;-59
2021/12/30 11:49:53;;;;;;;3.43;2.93;;;13.40;99.90;;;;;;5093291;28;20489;-59
2021/12/30 11:52:49;;;;;;;5.83;4.40;;;13.40;99.90;;;;;;5093027;28;20495;-60
2021/12/30 11:55:47;;;;;;;7.00;4.77;;;13.40;99.90;;;;;;5093370;28;20442;-59
2021/12/30 11:58:40;;;;;;;3.67;3.37;;;13.40;99.90;;;;;;5093538;28;20449;-60
2021/12/30 12:01:44;;;;;;;5.80;4.23;;;13.50;99.90;;;;;;5093209;28;20431;-58
2021/12/30 12:04:18;;;;;;;5.17;4.07;;;13.50;99.90;;;;;;5092939;28;20450;-59
2021/12/30 12:06:49;;;;;;;4.97;4.50;;;13.50;99.90;;;;;;5093409;28;20441;-59
2021/12/30 12:09:37;;;;;;;5.53;5.03;;;13.50;99.90;;;;;;5092928;28;20913;-58
2021/12/30 12:12:08;;;;;;;6.80;5.40;;;13.50;99.90;;;;;;5093471;28;20427;-58
2021/12/30 12:14:39;;;;;;;5.60;5.10;;;13.50;99.90;;;;;;5092776;28;20801;-58
2021/12/30 12:17:08;;;;;;;5.70;5.20;;;13.40;99.90;;;;;;5093139;28;20430;-58
2021/12/30 12:19:40;;;;;;;5.73;5.00;;;13.40;99.90;;;;;;5092783;28;20443;-59
2021/12/30 12:22:10;;;;;;;7.17;6.07;;;13.40;99.90;;;;;;5093423;28;20423;-59
2021/12/30 12:24:40;;;;;;;8.97;5.83;;;13.40;99.90;;;;;;5092684;28;20441;-59
2021/12/30 12:27:12;;;;;;;6.27;5.67;;;13.40;99.90;;;;;;5092892;28;20453;-59
2021/12/30 12:29:48;;;;;;;7.10;5.97;;;13.40;99.90;;;;;;5094944;28;20480;-59
2021/12/30 12:32:17;;;;;;;6.70;5.40;;;13.40;99.90;;;;;;5096913;28;20522;-58
2021/12/30 12:34:50;;;;;;;6.03;5.43;;;13.40;99.90;;;;;;5097124;28;20464;-58
2021/12/30 12:37:50;;;;;;;6.73;5.97;;;13.40;99.90;;;;;;5096969;28;20503;-58
2021/12/30 12:40:30;;;;;;;8.37;6.07;;;13.50;99.90;;;;;;5096762;28;20441;-58
2021/12/30 12:43:04;;;;;;;6.87;6.20;;;13.50;99.90;;;;;;5097079;28;20470;-58
2021/12/30 12:45:33;;;;;;;7.43;6.60;;;13.50;99.90;;;;;;5096964;28;20465;-57
2021/12/30 12:48:23;;;;;;;7.63;6.83;;;13.50;99.90;;;;;;5096863;28;20446;-58